sensor_id;sensor_type;location;lat;lon;timestamp;P1;durP1;ratioP1;P2;durP2;ratioP2
1651;SDS011;823;49.028;8.454;2023-02-28T00:03:06;5.03;;;2.33;;
1651;SDS011;823;49.028;8.454;2023-02-28T00:08:07;4.87;;;2.00;;
1651;SDS011;823;49.028;8.454;2023-02-28T00:13:07;4.17;;;2.60;;
1651;SDS011;823;49.028;8.454;2023-02-28T00:18:08;5.07;;;1.87;;
1651;SDS011;823;49.028;8.454;2023-02-28T00:23:08;3.05;;;2.25;;
1651;SDS011;823;49.028;8.454;2023-02-28T00:28:08;2.95;;;1.98;;
1651;SDS011;823;49.028;8.454;2023-02-28T00:33:09;4.60;;;2.30;;
1651;SDS011;823;49.028;8.454;2023-02-28T00:38:09;6.30;;;2.10;;
1651;SDS011;823;49.028;8.454;2023-02-28T00:43:09;14.60;;;2.73;;
1651;SDS011;823;49.028;8.454;2023-02-28T00:48:10;3.75;;;2.35;;
1651;SDS011;823;49.028;8.454;2023-02-28T00:53:10;4.57;;;2.30;;
1651;SDS011;823;49.028;8.454;2023-02-28T00:58:10;3.80;;;2.28;;
1651;SDS011;823;49.028;8.454;2023-02-28T01:03:10;2.83;;;2.13;;
1651;SDS011;823;49.028;8.454;2023-02-28T01:08:11;5.55;;;2.55;;
1651;SDS011;823;49.028;8.454;2023-02-28T01:13:12;5.07;;;2.20;;
1651;SDS011;823;49.028;8.454;2023-02-28T01:18:12;3.30;;;2.00;;
1651;SDS011;823;49.028;8.454;2023-02-28T01:23:12;6.78;;;2.00;;
1651;SDS011;823;49.028;8.454;2023-02-28T01:28:13;3.17;;;2.30;;
1651;SDS011;823;49.028;8.454;2023-02-28T01:33:13;7.50;;;2.20;;
1651;SDS011;823;49.028;8.454;2023-02-28T01:38:14;4.07;;;1.90;;
1651;SDS011;823;49.028;8.454;2023-02-28T01:43:31;7.73;;;2.13;;
1651;SDS011;823;49.028;8.454;2023-02-28T01:48:45;4.07;;;2.40;;
1651;SDS011;823;49.028;8.454;2023-02-28T01:53:51;10.00;;;2.30;;
1651;SDS011;823;49.028;8.454;2023-02-28T01:58:56;5.10;;;2.20;;
1651;SDS011;823;49.028;8.454;2023-02-28T02:03:57;3.53;;;2.40;;
1651;SDS011;823;49.028;8.454;2023-02-28T02:09:00;3.73;;;2.20;;
1651;SDS011;823;49.028;8.454;2023-02-28T02:46:24;3.95;;;2.25;;
1651;SDS011;823;49.028;8.454;2023-02-28T02:51:29;5.40;;;2.30;;
1651;SDS011;823;49.028;8.454;2023-02-28T02:56:32;8.37;;;3.27;;
1651;SDS011;823;49.028;8.454;2023-02-28T03:01:34;6.30;;;2.77;;
1651;SDS011;823;49.028;8.454;2023-02-28T03:06:37;3.63;;;2.20;;
1651;SDS011;823;49.028;8.454;2023-02-28T03:11:38;7.43;;;2.97;;
1651;SDS011;823;49.028;8.454;2023-02-28T03:16:46;4.20;;;2.40;;
1651;SDS011;823;49.028;8.454;2023-02-28T03:22:23;6.03;;;2.53;;
1651;SDS011;823;49.028;8.454;2023-02-28T03:27:41;8.70;;;2.87;;
1651;SDS011;823;49.028;8.454;2023-02-28T03:33:06;4.30;;;2.70;;
1651;SDS011;823;49.028;8.454;2023-02-28T03:38:12;6.60;;;2.73;;
1651;SDS011;823;49.028;8.454;2023-02-28T03:43:20;7.53;;;2.67;;
1651;SDS011;823;49.028;8.454;2023-02-28T03:48:38;8.97;;;2.80;;
1651;SDS011;823;49.028;8.454;2023-02-28T03:53:44;4.90;;;3.00;;
1651;SDS011;823;49.028;8.454;2023-02-28T04:03:59;3.63;;;2.57;;
1651;SDS011;823;49.028;8.454;2023-02-28T04:08:59;6.40;;;2.93;;
1651;SDS011;823;49.028;8.454;2023-02-28T04:14:00;7.17;;;3.03;;
1651;SDS011;823;49.028;8.454;2023-02-28T04:19:02;4.17;;;2.77;;
1651;SDS011;823;49.028;8.454;2023-02-28T04:24:05;4.50;;;2.87;;
1651;SDS011;823;49.028;8.454;2023-02-28T04:29:05;7.40;;;2.70;;
1651;SDS011;823;49.028;8.454;2023-02-28T04:34:07;6.37;;;3.37;;
1651;SDS011;823;49.028;8.454;2023-02-28T04:39:07;5.50;;;2.70;;
1651;SDS011;823;49.028;8.454;2023-02-28T04:44:09;8.30;;;3.20;;
1651;SDS011;823;49.028;8.454;2023-02-28T04:49:10;6.47;;;4.20;;
1651;SDS011;823;49.028;8.454;2023-02-28T04:54:11;8.87;;;2.90;;
1651;SDS011;823;49.028;8.454;2023-02-28T04:59:13;6.70;;;2.83;;
1651;SDS011;823;49.028;8.454;2023-02-28T05:04:13;5.78;;;2.97;;
1651;SDS011;823;49.028;8.454;2023-02-28T05:09:14;4.80;;;2.70;;
1651;SDS011;823;49.028;8.454;2023-02-28T05:14:14;6.47;;;2.85;;
1651;SDS011;823;49.028;8.454;2023-02-28T05:19:15;9.60;;;3.30;;
1651;SDS011;823;49.028;8.454;2023-02-28T05:24:15;7.93;;;3.10;;
1651;SDS011;823;49.028;8.454;2023-02-28T05:29:21;10.37;;;3.50;;
1651;SDS011;823;49.028;8.454;2023-02-28T05:34:22;8.40;;;3.80;;
1651;SDS011;823;49.028;8.454;2023-02-28T05:39:22;8.20;;;3.47;;
1651;SDS011;823;49.028;8.454;2023-02-28T05:44:22;9.55;;;4.60;;
1651;SDS011;823;49.028;8.454;2023-02-28T05:49:23;6.00;;;2.97;;
1651;SDS011;823;49.028;8.454;2023-02-28T05:54:23;6.93;;;3.63;;
1651;SDS011;823;49.028;8.454;2023-02-28T05:59:24;9.68;;;3.55;;
1651;SDS011;823;49.028;8.454;2023-02-28T06:04:24;10.48;;;4.05;;
1651;SDS011;823;49.028;8.454;2023-02-28T06:09:24;8.13;;;4.10;;
1651;SDS011;823;49.028;8.454;2023-02-28T06:14:25;8.20;;;3.50;;
1651;SDS011;823;49.028;8.454;2023-02-28T06:19:25;6.60;;;3.50;;
1651;SDS011;823;49.028;8.454;2023-02-28T06:24:26;7.67;;;3.63;;
1651;SDS011;823;49.028;8.454;2023-02-28T06:29:32;13.27;;;4.03;;
1651;SDS011;823;49.028;8.454;2023-02-28T06:34:33;7.50;;;3.63;;
1651;SDS011;823;49.028;8.454;2023-02-28T06:39:33;9.90;;;3.53;;
1651;SDS011;823;49.028;8.454;2023-02-28T06:44:34;7.70;;;3.83;;
1651;SDS011;823;49.028;8.454;2023-02-28T06:49:35;6.93;;;3.47;;
1651;SDS011;823;49.028;8.454;2023-02-28T06:54:36;8.63;;;3.77;;
1651;SDS011;823;49.028;8.454;2023-02-28T06:59:37;13.83;;;4.30;;
1651;SDS011;823;49.028;8.454;2023-02-28T07:04:37;9.50;;;4.37;;
1651;SDS011;823;49.028;8.454;2023-02-28T07:09:43;9.10;;;4.03;;
1651;SDS011;823;49.028;8.454;2023-02-28T07:14:43;8.98;;;3.92;;
1651;SDS011;823;49.028;8.454;2023-02-28T07:19:44;10.53;;;5.00;;
1651;SDS011;823;49.028;8.454;2023-02-28T07:24:44;8.90;;;4.10;;
1651;SDS011;823;49.028;8.454;2023-02-28T07:29:44;10.97;;;3.93;;
1651;SDS011;823;49.028;8.454;2023-02-28T07:34:45;10.70;;;4.38;;
1651;SDS011;823;49.028;8.454;2023-02-28T07:39:45;9.83;;;3.60;;
1651;SDS011;823;49.028;8.454;2023-02-28T07:44:46;7.50;;;3.63;;
1651;SDS011;823;49.028;8.454;2023-02-28T07:49:46;11.90;;;4.20;;
1651;SDS011;823;49.028;8.454;2023-02-28T07:54:46;11.85;;;3.78;;
1651;SDS011;823;49.028;8.454;2023-02-28T07:59:46;8.57;;;4.03;;
1651;SDS011;823;49.028;8.454;2023-02-28T08:04:47;7.63;;;4.23;;
1651;SDS011;823;49.028;8.454;2023-02-28T08:09:48;12.07;;;4.07;;
1651;SDS011;823;49.028;8.454;2023-02-28T08:14:48;8.80;;;4.10;;
1651;SDS011;823;49.028;8.454;2023-02-28T08:19:48;8.47;;;4.77;;
1651;SDS011;823;49.028;8.454;2023-02-28T08:24:49;10.23;;;4.40;;
1651;SDS011;823;49.028;8.454;2023-02-28T08:29:49;8.77;;;4.43;;
1651;SDS011;823;49.028;8.454;2023-02-28T08:34:49;11.57;;;5.43;;
1651;SDS011;823;49.028;8.454;2023-02-28T08:39:50;12.45;;;4.93;;
1651;SDS011;823;49.028;8.454;2023-02-28T08:44:50;10.50;;;4.90;;
1651;SDS011;823;49.028;8.454;2023-02-28T08:49:51;14.60;;;5.27;;
1651;SDS011;823;49.028;8.454;2023-02-28T08:54:51;8.80;;;4.65;;
1651;SDS011;823;49.028;8.454;2023-02-28T08:59:51;9.80;;;5.60;;
1651;SDS011;823;49.028;8.454;2023-02-28T09:04:52;9.83;;;5.20;;
1651;SDS011;823;49.028;8.454;2023-02-28T09:09:52;10.57;;;5.60;;
1651;SDS011;823;49.028;8.454;2023-02-28T09:14:55;8.90;;;4.93;;
1651;SDS011;823;49.028;8.454;2023-02-28T09:19:55;12.65;;;5.88;;
1651;SDS011;823;49.028;8.454;2023-02-28T09:24:56;10.57;;;3.97;;
1651;SDS011;823;49.028;8.454;2023-02-28T09:29:57;9.83;;;4.33;;
1651;SDS011;823;49.028;8.454;2023-02-28T09:34:57;12.98;;;5.82;;
1651;SDS011;823;49.028;8.454;2023-02-28T09:39:57;10.02;;;4.95;;
1651;SDS011;823;49.028;8.454;2023-02-28T09:44:58;7.83;;;4.50;;
1651;SDS011;823;49.028;8.454;2023-02-28T09:50:09;11.40;;;5.70;;
1651;SDS011;823;49.028;8.454;2023-02-28T10:00:33;18.90;;;6.90;;
1651;SDS011;823;49.028;8.454;2023-02-28T10:05:41;10.30;;;5.93;;
1651;SDS011;823;49.028;8.454;2023-02-28T10:10:49;8.23;;;4.50;;
1651;SDS011;823;49.028;8.454;2023-02-28T10:16:01;11.20;;;5.57;;
1651;SDS011;823;49.028;8.454;2023-02-28T10:21:08;10.77;;;6.40;;
1651;SDS011;823;49.028;8.454;2023-02-28T10:26:19;10.27;;;5.77;;
1651;SDS011;823;49.028;8.454;2023-02-28T10:31:20;10.00;;;5.60;;
1651;SDS011;823;49.028;8.454;2023-02-28T10:36:20;11.30;;;5.37;;
1651;SDS011;823;49.028;8.454;2023-02-28T10:41:29;12.50;;;5.23;;
1651;SDS011;823;49.028;8.454;2023-02-28T10:46:34;18.17;;;5.73;;
1651;SDS011;823;49.028;8.454;2023-02-28T10:51:36;11.83;;;5.00;;
1651;SDS011;823;49.028;8.454;2023-02-28T10:56:38;8.33;;;5.93;;
1651;SDS011;823;49.028;8.454;2023-02-28T11:01:45;15.30;;;6.70;;
1651;SDS011;823;49.028;8.454;2023-02-28T11:07:00;11.97;;;6.80;;
1651;SDS011;823;49.028;8.454;2023-02-28T11:12:16;13.03;;;7.13;;
1651;SDS011;823;49.028;8.454;2023-02-28T11:17:23;12.43;;;5.77;;
1651;SDS011;823;49.028;8.454;2023-02-28T11:22:26;13.37;;;7.37;;
1651;SDS011;823;49.028;8.454;2023-02-28T11:32:30;11.85;;;6.93;;
1651;SDS011;823;49.028;8.454;2023-02-28T11:37:31;10.53;;;5.70;;
1651;SDS011;823;49.028;8.454;2023-02-28T11:42:42;9.33;;;5.60;;
1651;SDS011;823;49.028;8.454;2023-02-28T11:58:50;12.67;;;5.73;;
1651;SDS011;823;49.028;8.454;2023-02-28T12:04:04;13.47;;;7.37;;
1651;SDS011;823;49.028;8.454;2023-02-28T12:09:28;12.97;;;6.30;;
1651;SDS011;823;49.028;8.454;2023-02-28T12:14:58;8.93;;;5.53;;
1651;SDS011;823;49.028;8.454;2023-02-28T12:20:13;9.27;;;6.07;;
1651;SDS011;823;49.028;8.454;2023-02-28T12:30:47;12.70;;;6.23;;
1651;SDS011;823;49.028;8.454;2023-02-28T12:35:58;13.10;;;6.43;;
1651;SDS011;823;49.028;8.454;2023-02-28T12:41:04;9.87;;;6.03;;
1651;SDS011;823;49.028;8.454;2023-02-28T12:46:14;11.17;;;6.70;;
1651;SDS011;823;49.028;8.454;2023-02-28T12:51:19;10.37;;;5.97;;
1651;SDS011;823;49.028;8.454;2023-02-28T13:01:47;10.60;;;6.10;;
1651;SDS011;823;49.028;8.454;2023-02-28T13:07:34;15.50;;;7.03;;
1651;SDS011;823;49.028;8.454;2023-02-28T13:12:37;11.30;;;6.53;;
1651;SDS011;823;49.028;8.454;2023-02-28T13:17:58;14.20;;;7.47;;
1651;SDS011;823;49.028;8.454;2023-02-28T13:22:59;12.40;;;6.50;;
1651;SDS011;823;49.028;8.454;2023-02-28T13:28:02;10.73;;;6.33;;
1651;SDS011;823;49.028;8.454;2023-02-28T13:38:25;11.20;;;6.40;;
1651;SDS011;823;49.028;8.454;2023-02-28T14:05:18;14.20;;;6.87;;
1651;SDS011;823;49.028;8.454;2023-02-28T14:10:33;13.10;;;6.93;;
1651;SDS011;823;49.028;8.454;2023-02-28T14:15:40;17.00;;;8.43;;
1651;SDS011;823;49.028;8.454;2023-02-28T14:20:44;12.63;;;6.93;;
1651;SDS011;823;49.028;8.454;2023-02-28T14:26:00;17.77;;;8.53;;
1651;SDS011;823;49.028;8.454;2023-02-28T14:31:15;15.60;;;7.83;;
1651;SDS011;823;49.028;8.454;2023-02-28T14:41:32;12.00;;;6.93;;
1651;SDS011;823;49.028;8.454;2023-02-28T14:46:38;15.30;;;7.03;;
1651;SDS011;823;49.028;8.454;2023-02-28T14:51:40;16.63;;;7.93;;
1651;SDS011;823;49.028;8.454;2023-02-28T14:56:40;21.53;;;8.60;;
1651;SDS011;823;49.028;8.454;2023-02-28T15:01:41;14.13;;;7.33;;
1651;SDS011;823;49.028;8.454;2023-02-28T15:06:41;21.80;;;8.57;;
1651;SDS011;823;49.028;8.454;2023-02-28T15:11:44;12.37;;;7.40;;
1651;SDS011;823;49.028;8.454;2023-02-28T15:17:01;14.03;;;7.07;;
1651;SDS011;823;49.028;8.454;2023-02-28T15:22:07;17.53;;;8.30;;
1651;SDS011;823;49.028;8.454;2023-02-28T15:27:21;14.47;;;6.77;;
1651;SDS011;823;49.028;8.454;2023-02-28T15:43:27;18.00;;;7.53;;
1651;SDS011;823;49.028;8.454;2023-02-28T15:48:37;22.40;;;7.77;;
1651;SDS011;823;49.028;8.454;2023-02-28T15:53:50;24.17;;;9.10;;
1651;SDS011;823;49.028;8.454;2023-02-28T15:58:58;15.83;;;7.93;;
1651;SDS011;823;49.028;8.454;2023-02-28T16:04:04;13.00;;;7.20;;
1651;SDS011;823;49.028;8.454;2023-02-28T16:09:08;19.50;;;7.50;;
1651;SDS011;823;49.028;8.454;2023-02-28T16:14:12;21.20;;;7.50;;
1651;SDS011;823;49.028;8.454;2023-02-28T16:19:15;14.03;;;7.27;;
1651;SDS011;823;49.028;8.454;2023-02-28T16:24:16;17.27;;;7.60;;
1651;SDS011;823;49.028;8.454;2023-02-28T16:29:27;12.70;;;7.57;;
1651;SDS011;823;49.028;8.454;2023-02-28T16:34:30;14.30;;;7.47;;
1651;SDS011;823;49.028;8.454;2023-02-28T16:39:30;16.10;;;7.60;;
1651;SDS011;823;49.028;8.454;2023-02-28T16:44:34;14.88;;;6.97;;
1651;SDS011;823;49.028;8.454;2023-02-28T16:49:35;12.80;;;6.43;;
1651;SDS011;823;49.028;8.454;2023-02-28T16:54:36;18.10;;;8.73;;
1651;SDS011;823;49.028;8.454;2023-02-28T16:59:36;10.25;;;6.72;;
1651;SDS011;823;49.028;8.454;2023-02-28T17:04:36;13.47;;;6.70;;
1651;SDS011;823;49.028;8.454;2023-02-28T17:09:36;14.48;;;6.90;;
1651;SDS011;823;49.028;8.454;2023-02-28T17:14:37;17.03;;;6.97;;
1651;SDS011;823;49.028;8.454;2023-02-28T17:19:37;14.53;;;6.70;;
1651;SDS011;823;49.028;8.454;2023-02-28T17:24:41;13.90;;;7.93;;
1651;SDS011;823;49.028;8.454;2023-02-28T17:29:41;16.77;;;7.78;;
1651;SDS011;823;49.028;8.454;2023-02-28T17:34:42;14.90;;;6.97;;
1651;SDS011;823;49.028;8.454;2023-02-28T17:39:43;15.87;;;7.70;;
1651;SDS011;823;49.028;8.454;2023-02-28T17:44:44;19.93;;;8.10;;
1651;SDS011;823;49.028;8.454;2023-02-28T17:49:44;18.45;;;8.73;;
1651;SDS011;823;49.028;8.454;2023-02-28T17:54:44;18.03;;;8.40;;
1651;SDS011;823;49.028;8.454;2023-02-28T17:59:45;21.77;;;8.50;;
1651;SDS011;823;49.028;8.454;2023-02-28T18:04:45;25.90;;;7.27;;
1651;SDS011;823;49.028;8.454;2023-02-28T18:09:45;20.33;;;7.05;;
1651;SDS011;823;49.028;8.454;2023-02-28T18:14:45;16.75;;;7.97;;
1651;SDS011;823;49.028;8.454;2023-02-28T18:19:47;15.67;;;7.10;;
1651;SDS011;823;49.028;8.454;2023-02-28T18:24:48;15.60;;;8.07;;
1651;SDS011;823;49.028;8.454;2023-02-28T18:29:48;14.70;;;8.02;;
1651;SDS011;823;49.028;8.454;2023-02-28T18:34:50;15.23;;;8.67;;
1651;SDS011;823;49.028;8.454;2023-02-28T18:39:50;11.37;;;6.60;;
1651;SDS011;823;49.028;8.454;2023-02-28T18:44:50;17.30;;;8.27;;
1651;SDS011;823;49.028;8.454;2023-02-28T18:49:50;19.92;;;8.40;;
1651;SDS011;823;49.028;8.454;2023-02-28T18:54:51;16.02;;;7.53;;
1651;SDS011;823;49.028;8.454;2023-02-28T18:59:51;14.60;;;8.37;;
1651;SDS011;823;49.028;8.454;2023-02-28T19:04:51;16.52;;;7.40;;
1651;SDS011;823;49.028;8.454;2023-02-28T19:09:52;18.25;;;9.23;;
1651;SDS011;823;49.028;8.454;2023-02-28T19:14:52;19.25;;;7.85;;
1651;SDS011;823;49.028;8.454;2023-02-28T19:19:52;13.10;;;7.05;;
1651;SDS011;823;49.028;8.454;2023-02-28T19:24:53;16.85;;;7.30;;
1651;SDS011;823;49.028;8.454;2023-02-28T19:29:53;14.85;;;7.57;;
1651;SDS011;823;49.028;8.454;2023-02-28T19:34:54;23.07;;;8.97;;
1651;SDS011;823;49.028;8.454;2023-02-28T19:39:54;21.58;;;8.05;;
1651;SDS011;823;49.028;8.454;2023-02-28T19:44:55;15.50;;;7.90;;
1651;SDS011;823;49.028;8.454;2023-02-28T19:49:56;23.42;;;8.10;;
1651;SDS011;823;49.028;8.454;2023-02-28T19:54:56;13.10;;;7.30;;
1651;SDS011;823;49.028;8.454;2023-02-28T19:59:57;18.80;;;8.20;;
1651;SDS011;823;49.028;8.454;2023-02-28T20:04:58;19.13;;;7.85;;
1651;SDS011;823;49.028;8.454;2023-02-28T20:09:59;16.00;;;7.27;;
1651;SDS011;823;49.028;8.454;2023-02-28T20:14:59;13.60;;;6.97;;
1651;SDS011;823;49.028;8.454;2023-02-28T20:19:59;20.58;;;8.57;;
1651;SDS011;823;49.028;8.454;2023-02-28T20:25:00;20.80;;;8.30;;
1651;SDS011;823;49.028;8.454;2023-02-28T20:30:01;17.63;;;8.87;;
1651;SDS011;823;49.028;8.454;2023-02-28T20:35:01;20.57;;;9.37;;
1651;SDS011;823;49.028;8.454;2023-02-28T20:40:01;25.20;;;9.10;;
1651;SDS011;823;49.028;8.454;2023-02-28T20:45:03;21.50;;;8.47;;
1651;SDS011;823;49.028;8.454;2023-02-28T20:50:04;21.73;;;9.33;;
1651;SDS011;823;49.028;8.454;2023-02-28T20:55:05;21.07;;;8.23;;
1651;SDS011;823;49.028;8.454;2023-02-28T21:00:06;24.40;;;8.87;;
1651;SDS011;823;49.028;8.454;2023-02-28T21:05:08;23.20;;;9.30;;
1651;SDS011;823;49.028;8.454;2023-02-28T21:10:08;21.73;;;8.68;;
1651;SDS011;823;49.028;8.454;2023-02-28T21:15:09;17.70;;;7.70;;
1651;SDS011;823;49.028;8.454;2023-02-28T21:20:10;20.43;;;8.90;;
1651;SDS011;823;49.028;8.454;2023-02-28T21:25:11;30.30;;;10.40;;
1651;SDS011;823;49.028;8.454;2023-02-28T21:30:11;21.10;;;9.68;;
1651;SDS011;823;49.028;8.454;2023-02-28T21:35:11;19.60;;;8.37;;
1651;SDS011;823;49.028;8.454;2023-02-28T21:40:12;25.27;;;9.40;;
1651;SDS011;823;49.028;8.454;2023-02-28T21:45:12;21.60;;;10.27;;
1651;SDS011;823;49.028;8.454;2023-02-28T21:50:13;20.93;;;8.80;;
1651;SDS011;823;49.028;8.454;2023-02-28T21:55:13;17.37;;;7.67;;
1651;SDS011;823;49.028;8.454;2023-02-28T22:00:13;27.67;;;10.60;;
1651;SDS011;823;49.028;8.454;2023-02-28T22:05:15;17.83;;;8.90;;
1651;SDS011;823;49.028;8.454;2023-02-28T22:10:16;18.43;;;9.13;;
1651;SDS011;823;49.028;8.454;2023-02-28T22:15:16;24.48;;;10.70;;
1651;SDS011;823;49.028;8.454;2023-02-28T22:20:16;27.63;;;9.07;;
1651;SDS011;823;49.028;8.454;2023-02-28T22:25:17;17.10;;;8.30;;
1651;SDS011;823;49.028;8.454;2023-02-28T22:30:17;21.80;;;8.60;;
1651;SDS011;823;49.028;8.454;2023-02-28T22:35:18;21.63;;;8.80;;
1651;SDS011;823;49.028;8.454;2023-02-28T22:40:19;23.83;;;9.37;;
1651;SDS011;823;49.028;8.454;2023-02-28T22:45:19;23.33;;;8.88;;
1651;SDS011;823;49.028;8.454;2023-02-28T22:50:19;24.50;;;10.40;;
1651;SDS011;823;49.028;8.454;2023-02-28T22:55:20;30.63;;;11.00;;
1651;SDS011;823;49.028;8.454;2023-02-28T23:00:20;19.40;;;8.77;;
1651;SDS011;823;49.028;8.454;2023-02-28T23:05:21;23.43;;;8.37;;
1651;SDS011;823;49.028;8.454;2023-02-28T23:10:21;18.05;;;7.68;;
1651;SDS011;823;49.028;8.454;2023-02-28T23:15:22;17.17;;;7.30;;
1651;SDS011;823;49.028;8.454;2023-02-28T23:20:22;21.63;;;7.40;;
1651;SDS011;823;49.028;8.454;2023-02-28T23:25:23;18.30;;;7.10;;
1651;SDS011;823;49.028;8.454;2023-02-28T23:30:23;19.63;;;7.67;;
1651;SDS011;823;49.028;8.454;2023-02-28T23:35:23;15.75;;;6.95;;
1651;SDS011;823;49.028;8.454;2023-02-28T23:40:24;17.27;;;6.57;;
1651;SDS011;823;49.028;8.454;2023-02-28T23:45:24;19.10;;;7.40;;
1651;SDS011;823;49.028;8.454;2023-02-28T23:50:25;19.47;;;7.57;;
1651;SDS011;823;49.028;8.454;2023-02-28T23:55:25;19.17;;;7.90;;
